Aérodrome :
LOGIN :

S'inscrire | Disclaimer

   EN    FR    IT 

 










Légende :    VFR   VFR Marginal   IFR   IFR Intensif   IFR Très Intensif
Visi : 
Plafond : 
>= 8 km
>= 3000ft
5 à 8 km
1000 à 3000 ft
1500m à 5 km
500 à 1000 ft
800 à 1500m
200 à 500 ft
< 800m
< 200 ft
Symboles :   Orages  Brouillard  Fortes neiges  Fortes précipitations  Vent > 20 kt
SIGMETs :   Divers  Orages  Givrage  Turbulence  Onde Orograph.  Cendres Volcan.







- Altitude de l'aérodrome : 46 ft
- Code IATA : SNN


EINN - Shannon

DERNIER METAR :
  • 200930Z 12010KT 9999 FEW010 SCT021 BKN038 14/12 Q1016 NOSIG

METARs EXPIRÉS :
  • 200900Z 12013KT 9999 FEW010 BKN040 14/11 Q1016 NOSIG
  • 200830Z 14012KT 9999 FEW010 BKN045 13/11 Q1016 NOSIG
  • 200800Z 14013KT 9999 FEW010 BKN045 13/11 Q1016 NOSIG
  • 200730Z 14013KT 9999 FEW010 SCT022 BKN045 13/11 Q1016 NOSIG
  • 200700Z 13010KT 9999 FEW010 SCT022 BKN045 13/11 Q1016 NOSIG

TAF TAF EINN
Valide du 20 à 06h jusqu'au 21 à 06h UTC


200500Z 2006/2106 15012KT 9999 SCT020 BKN030
TEMPO 2006/2018 -RA BKN012
BECMG 2009/2012 18010KT
BECMG 2018/2020 15005KT
TEMPO 2018/2106 3000 -RA BKN007
BECMG 2102/2104 VRB03KT
Pas de NOTAMs connus pour ce terrain.



MET'MAP, la Météo Aéronautique d'un coup d'oeil ! - Copyright ORBIFLY Décembre 2007 - Disclaimer

ORBIFLY MET'MAP TEAM :

Programmation & Développement : Alexandra Zaïnal
Conception & Développement : Baudouin d'Aumeries
Co-Programmation & Développement : Marc-Olivier Méhu
Soutien technique & logistique : Manuel Goepfert

Contact : metmap@orbifly.com




SOURCES & CREDITS :

   NOAA